Pagrindinis puslapis
METAR-TAF:

METAR-TAF

Oro uostai :

Rajahmundry, Indija

platuma: 17-06-37N, ilguma: 81-49-06E, Aukštis: 46 m

Dabartinis oras

Ataskaita buvo paskelbta 9 minutes, ne 14:30 UTC
Vėjas 8 kt iš Rytų
Temperatūra 26°C
Drėgmė 70%
Slėgis 1014 hPa
Matomumas: 2000 m
Mažai debesys ne aukštis 2000 ft
migla

METAR: VORY 201430Z 09008KT 2000 HZ FEW020 26/20 Q1014 NOSIG

Laikas: 20:09 (14:39 UTC)

Prognozė

Ataskaita buvo paskelbta 3 valandos ir 39 minutes, ne 11:00 UTC
Prognozė galioja nuo 20 metu 12 UTC su 20 metu 21 UTC
Vėjas 7 kt iš Rytų
Matomumas: 3000 m
Mažai debesys ne aukštis 2000 ft
dūmai, migla
Laikinai
nuo 20 metu 12 UTC su 20 metu 18 UTC
Mažai debesys ne aukštis 3000 ft, aukštai iškilę kamuoliniai debesys.

TAF: VORY 201100Z 2012/2021 10007KT 3000 FU HZ FEW020 TEMPO 2012/2018 FEW030TCU

Orai ataskaitas ir orų prognozės (METAR, TAF).

turimą stotys yra geltonos ir raudonos taškus žemėlapyje.

Perkelti pele per norėdami pamatyti stoties vardą.

Tada spustelėkite, norėdami matyti oro stebėjimo ir prognozės.

Norėdami pakeisti žemėlapį: spustelėkite ant žalios mygtukų su juodo kryžiaus žemyn,; žalią mygtuką su brūkšneliu, jei norite nutolinti; arba žalių rodyklių gretimoms žemėlapius.


METAR-TAF: